Etusivu
METAR-TAF:

METAR-TAF

Lentoasemat :

Port Hawkesbury, Nova Scotia, Kanada

Leveyspiiri: 45-40N, Pituuspiiri: 061-23W, korkeus merenpinnasta: 114 m

Tämänhetkinen sää

Tämä raportti tehtiin 1 tunti ja 14 minuuttia sitten, kello 19.04 UTC
Tuuli 19 kn lännestä puuskistuen 26 kn:hen
Lämpötila 8°C
Kosteus 93%
Ilmanpaine 1002 hPa
Näkyvyys: 14.5 km
Hajonneita pilviä 1000 ft:n korkeudessa
Pilvistä 1500 ft:n korkeudessa

METAR: CYPD 021904Z AUTO 27019G26KT 9SM BKN010 OVC015 08/07 A2959 RMK SLP026

Aika: 17:18 (20:18 UTC)


TAF: puuttuu

Säähavainnot ja -ennusteet yli 4000 lentoasemalta (METAR- ja TAF-raportit).

Käytössä olevat sääasemat on merkitty karttaan keltaisilla ja punaisilla pisteillä.

Aseta hiiri pisteen päälle nähdäksesi sääaseman nimen.

Klikkaa sitten nähdäksesi säähavainnot ja -ennusteet.

Kartan vaihtaminen: klikkaa mustalla rastilla varustettuja vihreitä pisteitä, niin voit zoomata sisään; viivalla varustettua vihreää pistettä, niin voit zoomata ulos tai vihreitä nuolia, niin pääset viereisille kartoille.


METAR-TAF: